CMA CGM Tosca — FMEL — position and weather

sailwx.info

Track history (hours):
 
Tides and Currents Weather Stations Pressure Air Temp Water Temp Dewpoint Dewpoint Depression Visibility Wind Speed Wind Dir Waves Ship Positions

CMA CGM Tosca

Last reported at 2017-Jan-19 20:15 UTC. Time now 2017-Jan-22 18:18 UTC.
Position N 36°20' E 014°44'.

Length 334 m; draft 14.2 m.

Type: Cargo ship. MMSI: 228335900.

Date/timePositionNaut miles runAvg speedWind from/ knotsBaromVisibWave heightAir tempDewpointWater temp
2017-Jan-19 20:15N 36°20' E 014°44'1419.8
2017-Jan-19 19:33N 36°25' E 014°29'2019.7
2017-Jan-19 18:33N 36°36' E 014°08'2719.6
2017-Jan-19 17:12N 36°50' E 013°40'1319.7
2017-Jan-19 16:32N 36°57' E 013°26'8419.8
2017-Jan-19 12:17N 37°47' E 012°01'13219.6
2017-Jan-19 05:33N 38°55' E 009°37'1919.2
2017-Jan-19 04:33N 39°04' E 009°15'9 9.0
2017-Jan-19 03:33N 39°10' E 009°06'3 3.4
2017-Jan-19 02:32N 39°13' E 009°04'0 0.0
2017-Jan-19 01:32N 39°13' E 009°04'0 0.0
2017-Jan-19 00:33N 39°13' E 009°04'0 0.0
2017-Jan-18 23:33N 39°13' E 009°04'0 0.0
2017-Jan-18 22:33N 39°13' E 009°04'0 0.0
2017-Jan-18 21:33N 39°13' E 009°04'0 0.0
2017-Jan-18 20:33N 39°13' E 009°04'0 0.0
2017-Jan-18 19:33N 39°13' E 009°04'0 0.0
2017-Jan-18 18:33N 39°13' E 009°04'0 0.0
2017-Jan-18 17:33N 39°13' E 009°04'0 0.0
2017-Jan-18 16:33N 39°13' E 009°04'0 0.0
2017-Jan-18 15:33N 39°13' E 009°04'0 0.0
2017-Jan-18 14:30N 39°13' E 009°04'0 0.0
2017-Jan-18 13:33N 39°13' E 009°04'0 0.0
2017-Jan-18 12:33N 39°13' E 009°04'0 0.0
2017-Jan-18 11:33N 39°13' E 009°04'0 0.0
2017-Jan-18 10:33N 39°13' E 009°04'0 0.0
2017-Jan-18 09:33N 39°13' E 009°04'0 0.0
2017-Jan-18 08:33N 39°13' E 009°04'0 0.0
2017-Jan-18 07:33N 39°13' E 009°04'0 0.0
2017-Jan-18 06:33N 39°13' E 009°04'0 0.0
2017-Jan-18 05:33N 39°13' E 009°04'0 0.0
2017-Jan-18 04:33N 39°13' E 009°04'0 0.0
2017-Jan-18 03:33N 39°13' E 009°04'4 3.5
2017-Jan-18 02:32N 39°10' E 009°06'7 7.3
2017-Jan-18 01:33N 39°03' E 009°11'3 3.2
2017-Jan-18 00:33N 39°00' E 009°09'3 2.9
2017-Jan-17 23:33N 39°03' E 009°11'2 1.6
2017-Jan-17 22:33N 39°02' E 009°09'8 8.5
2017-Jan-17 21:33N 38°54' E 009°04'1716.7
2017-Jan-17 20:33N 38°41' E 008°52'46618.7
2017-Jan-16 19:33N 36°43' W 000°39'  
2017-Jan-14 12:32N 38°05' W 009°56'1818.6
2017-Jan-14 11:34N 38°23' W 010°01'1818.2
2017-Jan-14 10:34N 38°41' W 010°06'1818.3
2017-Jan-14 09:33N 38°59' W 010°06'1918.6
2017-Jan-14 08:34N 39°18' W 010°06'60615.5
2017-Jan-12 17:31N 48°54' W 005°44'15813.1
2017-Jan-12 05:29N 50°07' W 002°08'1212.6
2017-Jan-12 04:33N 50°10' W 001°51'1414.4
2017-Jan-12 03:33N 50°14' W 001°29'1615.6
2017-Jan-12 02:33N 50°18' W 001°06'3216.1
2017-Jan-12 00:33N 50°27' W 000°17'1514.5
2017-Jan-11 23:34N 50°31' E 000°05'1413.8
2017-Jan-11 22:34N 50°35' E 000°26'1312.8
2017-Jan-11 21:34N 50°40' E 000°44'1313.0
2017-Jan-11 20:34N 50°46' E 001°02'1414.4
2017-Jan-11 19:34N 50°56' E 001°19'1817.8
2017-Jan-11 18:34N 51°09' E 001°38'1616.2
2017-Jan-11 17:33N 51°22' E 001°52'1414.0
2017-Jan-11 16:33N 51°36' E 001°48'1414.1
2017-Jan-11 15:33N 51°50' E 001°43'1211.8
2017-Jan-11 14:33N 51°42' E 001°28'1919.1
2017-Jan-11 13:33N 51°31' E 001°04'1817.8
2017-Jan-11 12:33N 51°30' E 000°35'3 3.1
2017-Jan-11 11:33N 51°30' E 000°30'0 0.0
2017-Jan-11 10:33N 51°30' E 000°30'0 0.0
2017-Jan-11 09:33N 51°30' E 000°30'0 0.0
2017-Jan-11 08:34N 51°30' E 000°30'0 0.0
2017-Jan-11 07:33N 51°30' E 000°30'0 0.0
2017-Jan-11 06:33N 51°30' E 000°30'0 0.0
2017-Jan-11 05:34N 51°30' E 000°30'0 0.0
2017-Jan-11 04:34N 51°30' E 000°30'0 0.0
2017-Jan-11 03:34N 51°30' E 000°30'0 0.0
2017-Jan-11 02:34N 51°30' E 000°30'0 0.0
2017-Jan-11 01:34N 51°30' E 000°30'0 0.0
2017-Jan-11 00:34N 51°30' E 000°30'0 0.0
2017-Jan-10 23:33N 51°30' E 000°30'0 0.0
2017-Jan-10 22:32N 51°30' E 000°30'0 0.0
2017-Jan-10 21:33N 51°30' E 000°30'0 0.0
2017-Jan-10 20:33N 51°30' E 000°30'0 0.0
2017-Jan-10 19:33N 51°30' E 000°30'0 0.0
2017-Jan-10 18:33N 51°30' E 000°30'0 0.0
2017-Jan-10 17:34N 51°30' E 000°30'0 0.0
2017-Jan-10 16:33N 51°30' E 000°30'0 0.0
2017-Jan-10 15:33N 51°30' E 000°30'0 0.0
2017-Jan-10 14:34N 51°30' E 000°30'0 0.0
2017-Jan-10 13:34N 51°30' E 000°30'0 0.0
2017-Jan-10 12:34N 51°30' E 000°30'1 1.1
2017-Jan-10 11:33N 51°30' E 000°32'1110.9
2017-Jan-10 10:33N 51°29' E 000°49'1615.8
2017-Jan-10 09:34N 51°34' E 001°14'1717.3
2017-Jan-10 08:34N 51°47' E 001°32'9 9.2
2017-Jan-10 07:33N 51°51' E 001°46'1110.6
2017-Jan-10 06:33N 51°41' E 001°49'1212.4
2017-Jan-10 05:33N 51°29' E 001°55'1211.9
2017-Jan-10 04:33N 51°22' E 002°10'1211.6
2017-Jan-10 03:33N 51°22' E 002°29'1212.5
2017-Jan-10 02:33N 51°25' E 002°49'1616.4
2017-Jan-10 01:33N 51°25' E 003°15'1313.3
2017-Jan-10 00:33N 51°26' E 003°36'1111.1
2017-Jan-09 23:33N 51°21' E 003°52'8 7.7
2017-Jan-09 22:33N 51°22' E 004°04'8 8.4
2017-Jan-09 21:33N 51°20' E 004°16'1 0.6
2017-Jan-09 20:29N 51°20' E 004°16'  
Track history (hours):
 
Tides and Currents Weather Stations Pressure Air Temp Water Temp Dewpoint Dewpoint Depression Visibility Wind Speed Wind Dir Waves Ship Positions

CMA CGM Tosca

Last reported at 2017-Jan-19 20:15 UTC. Time now 2017-Jan-22 18:18 UTC.
Position N 36°20' E 014°44'.

Length 334 m; draft 14.2 m.

Type: Cargo ship. MMSI: 228335900.

Date/timePositionNaut miles runAvg speedWind from/ knotsBaromVisibWave heightAir tempDewpointWater temp
2017-Jan-19 20:15N 36°20' E 014°44'1419.8
2017-Jan-19 19:33N 36°25' E 014°29'2019.7
2017-Jan-19 18:33N 36°36' E 014°08'2719.6
2017-Jan-19 17:12N 36°50' E 013°40'1319.7
2017-Jan-19 16:32N 36°57' E 013°26'8419.8
2017-Jan-19 12:17N 37°47' E 012°01'13219.6
2017-Jan-19 05:33N 38°55' E 009°37'1919.2
2017-Jan-19 04:33N 39°04' E 009°15'9 9.0
2017-Jan-19 03:33N 39°10' E 009°06'3 3.4
2017-Jan-19 02:32N 39°13' E 009°04'0 0.0
2017-Jan-19 01:32N 39°13' E 009°04'0 0.0
2017-Jan-19 00:33N 39°13' E 009°04'0 0.0
2017-Jan-18 23:33N 39°13' E 009°04'0 0.0
2017-Jan-18 22:33N 39°13' E 009°04'0 0.0
2017-Jan-18 21:33N 39°13' E 009°04'0 0.0
2017-Jan-18 20:33N 39°13' E 009°04'0 0.0
2017-Jan-18 19:33N 39°13' E 009°04'0 0.0
2017-Jan-18 18:33N 39°13' E 009°04'0 0.0
2017-Jan-18 17:33N 39°13' E 009°04'0 0.0
2017-Jan-18 16:33N 39°13' E 009°04'0 0.0
2017-Jan-18 15:33N 39°13' E 009°04'0 0.0
2017-Jan-18 14:30N 39°13' E 009°04'0 0.0
2017-Jan-18 13:33N 39°13' E 009°04'0 0.0
2017-Jan-18 12:33N 39°13' E 009°04'0 0.0
2017-Jan-18 11:33N 39°13' E 009°04'0 0.0
2017-Jan-18 10:33N 39°13' E 009°04'0 0.0
2017-Jan-18 09:33N 39°13' E 009°04'0 0.0
2017-Jan-18 08:33N 39°13' E 009°04'0 0.0
2017-Jan-18 07:33N 39°13' E 009°04'0 0.0
2017-Jan-18 06:33N 39°13' E 009°04'0 0.0
2017-Jan-18 05:33N 39°13' E 009°04'0 0.0
2017-Jan-18 04:33N 39°13' E 009°04'0 0.0
2017-Jan-18 03:33N 39°13' E 009°04'4 3.5
2017-Jan-18 02:32N 39°10' E 009°06'7 7.3
2017-Jan-18 01:33N 39°03' E 009°11'3 3.2
2017-Jan-18 00:33N 39°00' E 009°09'3 2.9
2017-Jan-17 23:33N 39°03' E 009°11'2 1.6
2017-Jan-17 22:33N 39°02' E 009°09'8 8.5
2017-Jan-17 21:33N 38°54' E 009°04'1716.7
2017-Jan-17 20:33N 38°41' E 008°52'46618.7
2017-Jan-16 19:33N 36°43' W 000°39'  
2017-Jan-14 12:32N 38°05' W 009°56'1818.6
2017-Jan-14 11:34N 38°23' W 010°01'1818.2
2017-Jan-14 10:34N 38°41' W 010°06'1818.3
2017-Jan-14 09:33N 38°59' W 010°06'1918.6
2017-Jan-14 08:34N 39°18' W 010°06'60615.5
2017-Jan-12 17:31N 48°54' W 005°44'15813.1
2017-Jan-12 05:29N 50°07' W 002°08'1212.6
2017-Jan-12 04:33N 50°10' W 001°51'1414.4
2017-Jan-12 03:33N 50°14' W 001°29'1615.6
2017-Jan-12 02:33N 50°18' W 001°06'3216.1
2017-Jan-12 00:33N 50°27' W 000°17'1514.5
2017-Jan-11 23:34N 50°31' E 000°05'1413.8
2017-Jan-11 22:34N 50°35' E 000°26'1312.8
2017-Jan-11 21:34N 50°40' E 000°44'1313.0
2017-Jan-11 20:34N 50°46' E 001°02'1414.4
2017-Jan-11 19:34N 50°56' E 001°19'1817.8
2017-Jan-11 18:34N 51°09' E 001°38'1616.2
2017-Jan-11 17:33N 51°22' E 001°52'1414.0
2017-Jan-11 16:33N 51°36' E 001°48'1414.1
2017-Jan-11 15:33N 51°50' E 001°43'1211.8
2017-Jan-11 14:33N 51°42' E 001°28'1919.1
2017-Jan-11 13:33N 51°31' E 001°04'1817.8
2017-Jan-11 12:33N 51°30' E 000°35'3 3.1
2017-Jan-11 11:33N 51°30' E 000°30'0 0.0
2017-Jan-11 10:33N 51°30' E 000°30'0 0.0
2017-Jan-11 09:33N 51°30' E 000°30'0 0.0
2017-Jan-11 08:34N 51°30' E 000°30'0 0.0
2017-Jan-11 07:33N 51°30' E 000°30'0 0.0
2017-Jan-11 06:33N 51°30' E 000°30'0 0.0
2017-Jan-11 05:34N 51°30' E 000°30'0 0.0
2017-Jan-11 04:34N 51°30' E 000°30'0 0.0
2017-Jan-11 03:34N 51°30' E 000°30'0 0.0
2017-Jan-11 02:34N 51°30' E 000°30'0 0.0
2017-Jan-11 01:34N 51°30' E 000°30'0 0.0
2017-Jan-11 00:34N 51°30' E 000°30'0 0.0
2017-Jan-10 23:33N 51°30' E 000°30'0 0.0
2017-Jan-10 22:32N 51°30' E 000°30'0 0.0
2017-Jan-10 21:33N 51°30' E 000°30'0 0.0
2017-Jan-10 20:33N 51°30' E 000°30'0 0.0
2017-Jan-10 19:33N 51°30' E 000°30'0 0.0
2017-Jan-10 18:33N 51°30' E 000°30'0 0.0
2017-Jan-10 17:34N 51°30' E 000°30'0 0.0
2017-Jan-10 16:33N 51°30' E 000°30'0 0.0
2017-Jan-10 15:33N 51°30' E 000°30'0 0.0
2017-Jan-10 14:34N 51°30' E 000°30'0 0.0
2017-Jan-10 13:34N 51°30' E 000°30'0 0.0
2017-Jan-10 12:34N 51°30' E 000°30'1 1.1
2017-Jan-10 11:33N 51°30' E 000°32'1110.9
2017-Jan-10 10:33N 51°29' E 000°49'1615.8
2017-Jan-10 09:34N 51°34' E 001°14'1717.3
2017-Jan-10 08:34N 51°47' E 001°32'9 9.2
2017-Jan-10 07:33N 51°51' E 001°46'1110.6
2017-Jan-10 06:33N 51°41' E 001°49'1212.4
2017-Jan-10 05:33N 51°29' E 001°55'1211.9
2017-Jan-10 04:33N 51°22' E 002°10'1211.6
2017-Jan-10 03:33N 51°22' E 002°29'1212.5
2017-Jan-10 02:33N 51°25' E 002°49'1616.4
2017-Jan-10 01:33N 51°25' E 003°15'1313.3
2017-Jan-10 00:33N 51°26' E 003°36'1111.1
2017-Jan-09 23:33N 51°21' E 003°52'8 7.7
2017-Jan-09 22:33N 51°22' E 004°04'8 8.4
2017-Jan-09 21:33N 51°20' E 004°16'1 0.6
2017-Jan-09 20:29N 51°20' E 004°16'  

Dump ship's entire track history